sensor_id;sensor_type;location;lat;lon;timestamp;pressure;altitude;pressure_sealevel;temperature;humidity
41334;BME280;27078;46.428;6.256;2023-07-31T00:01:50;96738.09;;;16.88;98.15
41334;BME280;27078;46.428;6.256;2023-07-31T00:04:15;96737.41;;;16.86;99.18
41334;BME280;27078;46.428;6.256;2023-07-31T00:06:40;96739.91;;;16.80;98.86
41334;BME280;27078;46.428;6.256;2023-07-31T00:09:06;96741.06;;;16.69;100.00
41334;BME280;27078;46.428;6.256;2023-07-31T00:11:31;96743.91;;;16.67;100.00
41334;BME280;27078;46.428;6.256;2023-07-31T00:13:56;96752.75;;;16.68;100.00
41334;BME280;27078;46.428;6.256;2023-07-31T00:16:22;96744.25;;;16.64;100.00
41334;BME280;27078;46.428;6.256;2023-07-31T00:18:47;96742.25;;;16.58;100.00
41334;BME280;27078;46.428;6.256;2023-07-31T00:21:12;96746.75;;;16.49;100.00
41334;BME280;27078;46.428;6.256;2023-07-31T00:23:38;96736.59;;;16.45;100.00
41334;BME280;27078;46.428;6.256;2023-07-31T00:26:03;96739.25;;;16.37;100.00
41334;BME280;27078;46.428;6.256;2023-07-31T00:28:28;96727.41;;;16.31;100.00
41334;BME280;27078;46.428;6.256;2023-07-31T00:30:54;96724.41;;;16.34;100.00
41334;BME280;27078;46.428;6.256;2023-07-31T00:33:19;96714.22;;;16.29;100.00
41334;BME280;27078;46.428;6.256;2023-07-31T00:35:45;96713.91;;;16.33;100.00
41334;BME280;27078;46.428;6.256;2023-07-31T00:38:10;96710.44;;;16.32;100.00
41334;BME280;27078;46.428;6.256;2023-07-31T00:40:36;96708.22;;;16.27;100.00
41334;BME280;27078;46.428;6.256;2023-07-31T00:43:02;96706.75;;;16.25;100.00
41334;BME280;27078;46.428;6.256;2023-07-31T00:45:28;96716.06;;;16.21;100.00
41334;BME280;27078;46.428;6.256;2023-07-31T00:47:54;96705.41;;;16.21;100.00
41334;BME280;27078;46.428;6.256;2023-07-31T00:50:19;96701.75;;;16.14;100.00
41334;BME280;27078;46.428;6.256;2023-07-31T00:52:44;96708.91;;;16.05;100.00
41334;BME280;27078;46.428;6.256;2023-07-31T00:55:10;96707.41;;;16.02;100.00
41334;BME280;27078;46.428;6.256;2023-07-31T00:57:36;96704.72;;;15.94;100.00
41334;BME280;27078;46.428;6.256;2023-07-31T01:00:03;96700.19;;;15.86;100.00
41334;BME280;27078;46.428;6.256;2023-07-31T01:02:29;96701.00;;;15.79;100.00
41334;BME280;27078;46.428;6.256;2023-07-31T01:04:54;96701.94;;;15.70;100.00
41334;BME280;27078;46.428;6.256;2023-07-31T01:07:36;96698.63;;;15.67;100.00
41334;BME280;27078;46.428;6.256;2023-07-31T01:12:45;96698.25;;;15.54;100.00
41334;BME280;27078;46.428;6.256;2023-07-31T01:15:11;96697.25;;;15.55;100.00
41334;BME280;27078;46.428;6.256;2023-07-31T01:17:37;96690.25;;;15.54;100.00
41334;BME280;27078;46.428;6.256;2023-07-31T01:20:05;96691.09;;;15.55;100.00
41334;BME280;27078;46.428;6.256;2023-07-31T01:22:54;96698.22;;;15.46;100.00
41334;BME280;27078;46.428;6.256;2023-07-31T01:31:23;96675.19;;;15.29;100.00
41334;BME280;27078;46.428;6.256;2023-07-31T01:33:50;96668.34;;;15.26;100.00
41334;BME280;27078;46.428;6.256;2023-07-31T01:36:17;96674.53;;;15.26;100.00
41334;BME280;27078;46.428;6.256;2023-07-31T01:38:43;96672.53;;;15.29;100.00
41334;BME280;27078;46.428;6.256;2023-07-31T01:41:08;96673.53;;;15.27;100.00
41334;BME280;27078;46.428;6.256;2023-07-31T01:43:33;96669.69;;;15.30;100.00
41334;BME280;27078;46.428;6.256;2023-07-31T01:45:59;96662.00;;;15.19;100.00
41334;BME280;27078;46.428;6.256;2023-07-31T01:48:24;96662.66;;;15.13;100.00
41334;BME280;27078;46.428;6.256;2023-07-31T01:50:49;96664.81;;;15.09;100.00
41334;BME280;27078;46.428;6.256;2023-07-31T01:53:15;96666.44;;;15.02;100.00
41334;BME280;27078;46.428;6.256;2023-07-31T01:55:40;96657.13;;;15.06;100.00
41334;BME280;27078;46.428;6.256;2023-07-31T01:58:05;96666.63;;;15.09;100.00
41334;BME280;27078;46.428;6.256;2023-07-31T02:00:31;96653.81;;;15.04;100.00
41334;BME280;27078;46.428;6.256;2023-07-31T02:02:56;96668.09;;;15.03;100.00
41334;BME280;27078;46.428;6.256;2023-07-31T02:05:21;96666.91;;;14.97;100.00
41334;BME280;27078;46.428;6.256;2023-07-31T02:07:47;96662.06;;;14.93;100.00
41334;BME280;27078;46.428;6.256;2023-07-31T02:10:12;96661.25;;;14.92;100.00
41334;BME280;27078;46.428;6.256;2023-07-31T02:12:38;96656.22;;;14.89;100.00
41334;BME280;27078;46.428;6.256;2023-07-31T02:15:03;96659.56;;;14.91;100.00
41334;BME280;27078;46.428;6.256;2023-07-31T02:17:29;96659.69;;;14.90;100.00
41334;BME280;27078;46.428;6.256;2023-07-31T02:19:54;96667.38;;;14.93;100.00
41334;BME280;27078;46.428;6.256;2023-07-31T02:22:20;96666.38;;;14.94;100.00
41334;BME280;27078;46.428;6.256;2023-07-31T02:24:45;96658.41;;;14.94;100.00
41334;BME280;27078;46.428;6.256;2023-07-31T02:27:10;96651.38;;;14.84;100.00
41334;BME280;27078;46.428;6.256;2023-07-31T02:29:36;96651.00;;;14.79;100.00
41334;BME280;27078;46.428;6.256;2023-07-31T02:32:01;96656.03;;;14.82;100.00
41334;BME280;27078;46.428;6.256;2023-07-31T02:34:27;96668.31;;;14.83;100.00
41334;BME280;27078;46.428;6.256;2023-07-31T02:36:52;96671.44;;;14.79;100.00
41334;BME280;27078;46.428;6.256;2023-07-31T02:39:17;96664.47;;;14.78;100.00
41334;BME280;27078;46.428;6.256;2023-07-31T02:41:43;96671.59;;;14.77;100.00
41334;BME280;27078;46.428;6.256;2023-07-31T02:44:08;96661.63;;;14.79;100.00
41334;BME280;27078;46.428;6.256;2023-07-31T02:46:33;96666.66;;;14.82;100.00
41334;BME280;27078;46.428;6.256;2023-07-31T02:48:59;96662.16;;;14.83;100.00
41334;BME280;27078;46.428;6.256;2023-07-31T02:51:24;96661.00;;;14.85;100.00
41334;BME280;27078;46.428;6.256;2023-07-31T02:53:49;96661.63;;;14.79;100.00
41334;BME280;27078;46.428;6.256;2023-07-31T02:56:15;96657.81;;;14.74;100.00
41334;BME280;27078;46.428;6.256;2023-07-31T02:58:40;96661.28;;;14.74;100.00
41334;BME280;27078;46.428;6.256;2023-07-31T03:01:05;96655.44;;;14.71;100.00
41334;BME280;27078;46.428;6.256;2023-07-31T03:03:31;96662.59;;;14.70;100.00
41334;BME280;27078;46.428;6.256;2023-07-31T03:05:56;96649.31;;;14.70;100.00
41334;BME280;27078;46.428;6.256;2023-07-31T03:08:21;96653.78;;;14.70;100.00
41334;BME280;27078;46.428;6.256;2023-07-31T03:10:47;96652.50;;;14.74;100.00
41334;BME280;27078;46.428;6.256;2023-07-31T03:13:12;96652.34;;;14.75;100.00
41334;BME280;27078;46.428;6.256;2023-07-31T03:15:37;96656.44;;;14.70;100.00
41334;BME280;27078;46.428;6.256;2023-07-31T03:18:03;96660.25;;;14.67;100.00
41334;BME280;27078;46.428;6.256;2023-07-31T03:20:28;96648.75;;;14.58;100.00
41334;BME280;27078;46.428;6.256;2023-07-31T03:22:53;96656.16;;;14.55;100.00
41334;BME280;27078;46.428;6.256;2023-07-31T03:25:19;96652.13;;;14.51;100.00
41334;BME280;27078;46.428;6.256;2023-07-31T03:27:44;96662.44;;;14.54;100.00
41334;BME280;27078;46.428;6.256;2023-07-31T03:30:10;96666.09;;;14.53;100.00
41334;BME280;27078;46.428;6.256;2023-07-31T03:32:35;96674.56;;;14.48;100.00
41334;BME280;27078;46.428;6.256;2023-07-31T03:35:00;96678.44;;;14.36;100.00
41334;BME280;27078;46.428;6.256;2023-07-31T03:37:26;96671.22;;;14.28;100.00
41334;BME280;27078;46.428;6.256;2023-07-31T03:39:51;96665.56;;;14.23;100.00
41334;BME280;27078;46.428;6.256;2023-07-31T03:42:16;96669.34;;;14.20;100.00
41334;BME280;27078;46.428;6.256;2023-07-31T03:44:42;96669.50;;;14.19;100.00
41334;BME280;27078;46.428;6.256;2023-07-31T03:47:07;96669.19;;;14.22;100.00
41334;BME280;27078;46.428;6.256;2023-07-31T03:49:32;96665.56;;;14.23;100.00
41334;BME280;27078;46.428;6.256;2023-07-31T03:51:58;96661.91;;;14.24;100.00
41334;BME280;27078;46.428;6.256;2023-07-31T03:54:23;96664.19;;;14.19;100.00
41334;BME280;27078;46.428;6.256;2023-07-31T03:56:49;96658.41;;;14.23;100.00
41334;BME280;27078;46.428;6.256;2023-07-31T03:59:14;96672.53;;;14.24;100.00
41334;BME280;27078;46.428;6.256;2023-07-31T04:01:40;96662.75;;;14.24;100.00
41334;BME280;27078;46.428;6.256;2023-07-31T04:04:05;96660.53;;;14.20;100.00
41334;BME280;27078;46.428;6.256;2023-07-31T04:06:30;96661.69;;;14.17;100.00
41334;BME280;27078;46.428;6.256;2023-07-31T04:08:56;96659.16;;;14.16;100.00
41334;BME280;27078;46.428;6.256;2023-07-31T04:11:21;96669.75;;;14.08;100.00
41334;BME280;27078;46.428;6.256;2023-07-31T04:13:47;96672.47;;;13.98;100.00
41334;BME280;27078;46.428;6.256;2023-07-31T04:16:12;96679.59;;;13.97;100.00
41334;BME280;27078;46.428;6.256;2023-07-31T04:18:38;96678.59;;;13.98;100.00
41334;BME280;27078;46.428;6.256;2023-07-31T04:21:03;96702.13;;;13.93;100.00
41334;BME280;27078;46.428;6.256;2023-07-31T04:23:28;96692.72;;;13.99;100.00
41334;BME280;27078;46.428;6.256;2023-07-31T04:25:54;96698.47;;;13.94;100.00
41334;BME280;27078;46.428;6.256;2023-07-31T04:28:19;96698.47;;;13.94;100.00
41334;BME280;27078;46.428;6.256;2023-07-31T04:30:44;96686.88;;;13.95;100.00
41334;BME280;27078;46.428;6.256;2023-07-31T04:33:10;96692.47;;;13.92;100.00
41334;BME280;27078;46.428;6.256;2023-07-31T04:35:35;96686.19;;;13.93;100.00
41334;BME280;27078;46.428;6.256;2023-07-31T04:38:01;96677.00;;;13.88;100.00
41334;BME280;27078;46.428;6.256;2023-07-31T04:40:26;96682.69;;;13.75;100.00
41334;BME280;27078;46.428;6.256;2023-07-31T04:42:52;96688.22;;;13.81;100.00
41334;BME280;27078;46.428;6.256;2023-07-31T04:45:17;96680.59;;;13.78;100.00
41334;BME280;27078;46.428;6.256;2023-07-31T04:47:42;96674.81;;;13.83;100.00
41334;BME280;27078;46.428;6.256;2023-07-31T04:50:08;96666.09;;;13.91;100.00
41334;BME280;27078;46.428;6.256;2023-07-31T04:52:33;96664.28;;;13.91;100.00
41334;BME280;27078;46.428;6.256;2023-07-31T04:54:59;96670.50;;;14.00;100.00
41334;BME280;27078;46.428;6.256;2023-07-31T04:57:24;96667.91;;;14.08;100.00
41334;BME280;27078;46.428;6.256;2023-07-31T04:59:49;96688.84;;;14.11;100.00
41334;BME280;27078;46.428;6.256;2023-07-31T05:02:15;96693.31;;;14.11;100.00
41334;BME280;27078;46.428;6.256;2023-07-31T05:04:40;96693.25;;;14.02;100.00
41334;BME280;27078;46.428;6.256;2023-07-31T05:07:05;96702.94;;;14.12;100.00
41334;BME280;27078;46.428;6.256;2023-07-31T05:09:31;96706.69;;;14.19;100.00
41334;BME280;27078;46.428;6.256;2023-07-31T05:11:56;96706.09;;;14.25;100.00
41334;BME280;27078;46.428;6.256;2023-07-31T05:14:22;96702.19;;;14.19;100.00
41334;BME280;27078;46.428;6.256;2023-07-31T05:16:48;96708.06;;;14.23;100.00
41334;BME280;27078;46.428;6.256;2023-07-31T05:19:13;96699.69;;;14.18;100.00
41334;BME280;27078;46.428;6.256;2023-07-31T05:21:39;96689.38;;;14.15;100.00
41334;BME280;27078;46.428;6.256;2023-07-31T05:24:05;96692.56;;;14.18;100.00
41334;BME280;27078;46.428;6.256;2023-07-31T05:26:30;96693.41;;;14.19;100.00
41334;BME280;27078;46.428;6.256;2023-07-31T05:28:56;96690.22;;;14.15;100.00
41334;BME280;27078;46.428;6.256;2023-07-31T05:31:22;96690.75;;;14.19;100.00
41334;BME280;27078;46.428;6.256;2023-07-31T05:33:49;96704.28;;;14.08;100.00
41334;BME280;27078;46.428;6.256;2023-07-31T05:36:15;96699.69;;;14.18;100.00
41334;BME280;27078;46.428;6.256;2023-07-31T05:38:41;96689.88;;;14.36;100.00
41334;BME280;27078;46.428;6.256;2023-07-31T05:41:07;96691.84;;;14.52;100.00
41334;BME280;27078;46.428;6.256;2023-07-31T05:43:32;96702.09;;;14.65;100.00
41334;BME280;27078;46.428;6.256;2023-07-31T05:45:57;96700.47;;;14.72;100.00
41334;BME280;27078;46.428;6.256;2023-07-31T05:48:23;96691.56;;;14.81;100.00
41334;BME280;27078;46.428;6.256;2023-07-31T05:50:48;96691.38;;;15.01;100.00
41334;BME280;27078;46.428;6.256;2023-07-31T05:53:13;96684.31;;;15.18;100.00
41334;BME280;27078;46.428;6.256;2023-07-31T05:55:39;96687.22;;;15.41;100.00
41334;BME280;27078;46.428;6.256;2023-07-31T05:58:04;96685.28;;;15.59;100.00
41334;BME280;27078;46.428;6.256;2023-07-31T06:00:29;96676.88;;;15.80;100.00
41334;BME280;27078;46.428;6.256;2023-07-31T06:02:55;96672.09;;;16.00;100.00
41334;BME280;27078;46.428;6.256;2023-07-31T06:05:20;96668.94;;;16.13;100.00
41334;BME280;27078;46.428;6.256;2023-07-31T06:07:45;96663.44;;;16.31;100.00
41334;BME280;27078;46.428;6.256;2023-07-31T06:10:11;96647.44;;;16.47;100.00
41334;BME280;27078;46.428;6.256;2023-07-31T06:12:36;96658.91;;;16.64;100.00
41334;BME280;27078;46.428;6.256;2023-07-31T06:15:02;96667.38;;;16.76;100.00
41334;BME280;27078;46.428;6.256;2023-07-31T06:17:28;96675.25;;;16.86;100.00
41334;BME280;27078;46.428;6.256;2023-07-31T06:19:56;96676.88;;;16.95;100.00
41334;BME280;27078;46.428;6.256;2023-07-31T06:22:21;96677.38;;;16.99;100.00
41334;BME280;27078;46.428;6.256;2023-07-31T06:24:46;96684.53;;;17.06;100.00
41334;BME280;27078;46.428;6.256;2023-07-31T06:27:12;96683.66;;;17.14;100.00
41334;BME280;27078;46.428;6.256;2023-07-31T06:29:37;96671.63;;;17.26;100.00
41334;BME280;27078;46.428;6.256;2023-07-31T06:32:03;96674.44;;;17.33;100.00
41334;BME280;27078;46.428;6.256;2023-07-31T06:34:28;96681.28;;;17.36;100.00
41334;BME280;27078;46.428;6.256;2023-07-31T06:36:55;96678.78;;;17.34;100.00
41334;BME280;27078;46.428;6.256;2023-07-31T06:39:20;96674.22;;;17.43;100.00
41334;BME280;27078;46.428;6.256;2023-07-31T06:41:46;96671.72;;;17.41;100.00
41334;BME280;27078;46.428;6.256;2023-07-31T06:44:11;96675.56;;;17.47;100.00
41334;BME280;27078;46.428;6.256;2023-07-31T06:46:36;96670.34;;;17.54;100.00
41334;BME280;27078;46.428;6.256;2023-07-31T06:49:02;96668.81;;;17.59;100.00
41334;BME280;27078;46.428;6.256;2023-07-31T06:51:27;96664.44;;;17.66;100.00
41334;BME280;27078;46.428;6.256;2023-07-31T06:53:52;96662.72;;;17.74;100.00
41334;BME280;27078;46.428;6.256;2023-07-31T06:56:18;96655.34;;;17.84;100.00
41334;BME280;27078;46.428;6.256;2023-07-31T06:58:43;96653.97;;;17.88;100.00
41334;BME280;27078;46.428;6.256;2023-07-31T07:01:08;96660.94;;;17.97;100.00
41334;BME280;27078;46.428;6.256;2023-07-31T07:03:34;96651.69;;;18.08;100.00
41334;BME280;27078;46.428;6.256;2023-07-31T07:06:00;96650.50;;;18.10;100.00
41334;BME280;27078;46.428;6.256;2023-07-31T07:08:25;96642.47;;;18.10;100.00
41334;BME280;27078;46.428;6.256;2023-07-31T07:10:51;96638.91;;;18.18;100.00
41334;BME280;27078;46.428;6.256;2023-07-31T07:13:16;96644.00;;;18.28;100.00
41334;BME280;27078;46.428;6.256;2023-07-31T07:15:47;96644.31;;;18.33;100.00
41334;BME280;27078;46.428;6.256;2023-07-31T07:18:12;96648.56;;;18.42;100.00
41334;BME280;27078;46.428;6.256;2023-07-31T07:20:39;96645.00;;;18.50;100.00
41334;BME280;27078;46.428;6.256;2023-07-31T07:23:04;96640.19;;;18.60;98.24
41334;BME280;27078;46.428;6.256;2023-07-31T07:25:29;96649.34;;;18.66;97.39
41334;BME280;27078;46.428;6.256;2023-07-31T07:27:55;96644.00;;;18.66;95.66
41334;BME280;27078;46.428;6.256;2023-07-31T07:30:20;96647.94;;;18.55;92.19
41334;BME280;27078;46.428;6.256;2023-07-31T07:32:45;96644.38;;;18.63;93.13
41334;BME280;27078;46.428;6.256;2023-07-31T07:35:11;96638.75;;;18.72;95.41
41334;BME280;27078;46.428;6.256;2023-07-31T07:37:36;96636.53;;;18.76;93.60
41334;BME280;27078;46.428;6.256;2023-07-31T07:40:02;96643.53;;;18.77;92.51
41334;BME280;27078;46.428;6.256;2023-07-31T07:42:27;96649.50;;;18.87;91.86
41334;BME280;27078;46.428;6.256;2023-07-31T07:44:53;96639.63;;;18.88;90.18
41334;BME280;27078;46.428;6.256;2023-07-31T07:47:18;96640.19;;;18.98;90.67
41334;BME280;27078;46.428;6.256;2023-07-31T07:49:43;96636.50;;;19.14;89.56
41334;BME280;27078;46.428;6.256;2023-07-31T07:52:09;96636.66;;;19.27;90.78
41334;BME280;27078;46.428;6.256;2023-07-31T07:54:34;96635.34;;;19.38;90.59
41334;BME280;27078;46.428;6.256;2023-07-31T07:56:59;96631.66;;;19.54;90.82
41334;BME280;27078;46.428;6.256;2023-07-31T07:59:25;96628.41;;;19.59;89.02
41334;BME280;27078;46.428;6.256;2023-07-31T08:01:50;96626.44;;;19.67;87.64
41334;BME280;27078;46.428;6.256;2023-07-31T08:04:15;96626.59;;;19.81;86.97
41334;BME280;27078;46.428;6.256;2023-07-31T08:06:40;96630.09;;;19.96;83.11
41334;BME280;27078;46.428;6.256;2023-07-31T08:09:06;96636.78;;;20.07;81.49
41334;BME280;27078;46.428;6.256;2023-07-31T08:11:34;96639.75;;;20.19;80.47
41334;BME280;27078;46.428;6.256;2023-07-31T08:14:00;96641.44;;;20.20;79.44
41334;BME280;27078;46.428;6.256;2023-07-31T08:16:26;96631.22;;;20.30;76.29
41334;BME280;27078;46.428;6.256;2023-07-31T08:18:51;96627.25;;;20.47;76.98
41334;BME280;27078;46.428;6.256;2023-07-31T08:21:16;96615.00;;;20.60;74.85
41334;BME280;27078;46.428;6.256;2023-07-31T08:23:42;96622.50;;;20.71;72.56
41334;BME280;27078;46.428;6.256;2023-07-31T08:26:07;96626.59;;;20.67;68.98
41334;BME280;27078;46.428;6.256;2023-07-31T08:28:32;96626.88;;;20.79;66.02
41334;BME280;27078;46.428;6.256;2023-07-31T08:30:58;96627.16;;;20.90;65.30
41334;BME280;27078;46.428;6.256;2023-07-31T08:33:23;96620.41;;;21.01;68.27
41334;BME280;27078;46.428;6.256;2023-07-31T08:35:48;96631.34;;;21.00;65.16
41334;BME280;27078;46.428;6.256;2023-07-31T08:38:14;96630.63;;;21.19;68.99
41334;BME280;27078;46.428;6.256;2023-07-31T08:40:39;96621.00;;;21.38;68.08
41334;BME280;27078;46.428;6.256;2023-07-31T08:43:04;96615.31;;;21.54;67.41
41334;BME280;27078;46.428;6.256;2023-07-31T08:45:30;96615.38;;;21.74;69.24
41334;BME280;27078;46.428;6.256;2023-07-31T08:47:56;96612.91;;;21.86;63.33
41334;BME280;27078;46.428;6.256;2023-07-31T08:50:23;96600.53;;;21.92;62.86
41334;BME280;27078;46.428;6.256;2023-07-31T08:52:49;96608.59;;;21.99;60.99
41334;BME280;27078;46.428;6.256;2023-07-31T08:55:15;96607.78;;;21.98;60.81
41334;BME280;27078;46.428;6.256;2023-07-31T08:57:43;96596.59;;;21.88;61.81
41334;BME280;27078;46.428;6.256;2023-07-31T09:00:11;96605.66;;;21.73;61.05
41334;BME280;27078;46.428;6.256;2023-07-31T09:02:46;96605.59;;;21.53;60.88
41334;BME280;27078;46.428;6.256;2023-07-31T09:05:12;96602.34;;;21.23;60.19
41334;BME280;27078;46.428;6.256;2023-07-31T09:07:38;96602.72;;;21.13;63.33
41334;BME280;27078;46.428;6.256;2023-07-31T09:10:05;96604.09;;;21.03;61.60
41334;BME280;27078;46.428;6.256;2023-07-31T09:12:31;96600.38;;;21.04;59.85
41334;BME280;27078;46.428;6.256;2023-07-31T09:15:00;96589.72;;;21.17;60.79
41334;BME280;27078;46.428;6.256;2023-07-31T09:17:33;96595.91;;;21.18;58.59
41334;BME280;27078;46.428;6.256;2023-07-31T09:20:13;96588.69;;;21.18;59.29
41334;BME280;27078;46.428;6.256;2023-07-31T09:22:39;96591.13;;;21.06;61.54
41334;BME280;27078;46.428;6.256;2023-07-31T09:25:21;96579.84;;;21.24;58.68
41334;BME280;27078;46.428;6.256;2023-07-31T09:27:49;96578.66;;;21.40;59.19
41334;BME280;27078;46.428;6.256;2023-07-31T09:30:15;96571.91;;;21.51;53.75
41334;BME280;27078;46.428;6.256;2023-07-31T09:32:42;96566.38;;;21.59;55.28
41334;BME280;27078;46.428;6.256;2023-07-31T09:35:19;96558.13;;;21.81;55.95
41334;BME280;27078;46.428;6.256;2023-07-31T09:37:53;96556.28;;;21.88;54.82
41334;BME280;27078;46.428;6.256;2023-07-31T09:40:29;96553.97;;;21.71;56.57
41334;BME280;27078;46.428;6.256;2023-07-31T09:43:00;96551.94;;;21.87;60.29
41334;BME280;27078;46.428;6.256;2023-07-31T09:45:26;96546.78;;;22.05;61.56
41334;BME280;27078;46.428;6.256;2023-07-31T09:47:52;96535.81;;;22.13;60.20
41334;BME280;27078;46.428;6.256;2023-07-31T09:50:20;96536.66;;;22.21;59.86
41334;BME280;27078;46.428;6.256;2023-07-31T09:52:46;96534.63;;;22.23;58.29
41334;BME280;27078;46.428;6.256;2023-07-31T09:55:12;96527.78;;;22.27;58.35
41334;BME280;27078;46.428;6.256;2023-07-31T09:57:40;96524.03;;;22.34;59.21
41334;BME280;27078;46.428;6.256;2023-07-31T10:00:06;96515.34;;;22.39;57.93
41334;BME280;27078;46.428;6.256;2023-07-31T10:02:35;96514.09;;;22.48;57.75
41334;BME280;27078;46.428;6.256;2023-07-31T10:05:29;96509.91;;;22.66;57.31
41334;BME280;27078;46.428;6.256;2023-07-31T10:08:37;96512.09;;;22.95;56.69
41334;BME280;27078;46.428;6.256;2023-07-31T10:11:55;96519.28;;;23.22;53.47
41334;BME280;27078;46.428;6.256;2023-07-31T10:15:01;96518.31;;;23.48;54.01
41334;BME280;27078;46.428;6.256;2023-07-31T10:18:14;96511.78;;;23.69;53.04
41334;BME280;27078;46.428;6.256;2023-07-31T10:21:18;96501.75;;;23.83;52.75
41334;BME280;27078;46.428;6.256;2023-07-31T10:24:24;96504.13;;;23.97;53.03
41334;BME280;27078;46.428;6.256;2023-07-31T10:26:57;96490.91;;;24.14;52.87
41334;BME280;27078;46.428;6.256;2023-07-31T10:29:56;96499.31;;;24.25;51.40
41334;BME280;27078;46.428;6.256;2023-07-31T10:33:07;96489.59;;;24.24;49.53
41334;BME280;27078;46.428;6.256;2023-07-31T10:36:20;96475.66;;;24.27;50.78
41334;BME280;27078;46.428;6.256;2023-07-31T10:39:41;96474.84;;;24.26;51.50
41334;BME280;27078;46.428;6.256;2023-07-31T10:42:59;96474.28;;;24.17;51.61
41334;BME280;27078;46.428;6.256;2023-07-31T10:46:07;96471.97;;;24.21;51.79
41334;BME280;27078;46.428;6.256;2023-07-31T10:48:57;96466.06;;;24.31;53.67
41334;BME280;27078;46.428;6.256;2023-07-31T10:51:41;96469.81;;;24.30;52.67
41334;BME280;27078;46.428;6.256;2023-07-31T10:54:40;96469.38;;;24.33;52.10
41334;BME280;27078;46.428;6.256;2023-07-31T10:57:48;96474.31;;;24.36;51.99
41334;BME280;27078;46.428;6.256;2023-07-31T11:00:47;96462.31;;;24.32;52.12
41334;BME280;27078;46.428;6.256;2023-07-31T11:03:56;96466.88;;;24.31;52.14
41334;BME280;27078;46.428;6.256;2023-07-31T11:07:07;96460.53;;;24.26;49.49
41334;BME280;27078;46.428;6.256;2023-07-31T11:09:57;96460.28;;;24.52;49.74
41334;BME280;27078;46.428;6.256;2023-07-31T11:12:33;96457.38;;;24.72;49.85
41334;BME280;27078;46.428;6.256;2023-07-31T11:15:04;96462.97;;;24.71;47.54
41334;BME280;27078;46.428;6.256;2023-07-31T11:17:40;96456.16;;;24.68;48.06
41334;BME280;27078;46.428;6.256;2023-07-31T11:20:14;96456.09;;;24.75;47.09
41334;BME280;27078;46.428;6.256;2023-07-31T11:22:52;96445.59;;;24.85;47.36
41334;BME280;27078;46.428;6.256;2023-07-31T11:25:22;96443.31;;;25.01;46.74
41334;BME280;27078;46.428;6.256;2023-07-31T11:27:55;96441.09;;;25.09;45.18
41334;BME280;27078;46.428;6.256;2023-07-31T11:30:45;96442.97;;;25.27;44.64
41334;BME280;27078;46.428;6.256;2023-07-31T11:33:42;96431.19;;;25.52;43.04
41334;BME280;27078;46.428;6.256;2023-07-31T11:37:08;96424.19;;;25.74;43.18
41334;BME280;27078;46.428;6.256;2023-07-31T11:40:28;96422.78;;;25.84;41.48
41334;BME280;27078;46.428;6.256;2023-07-31T11:43:45;96423.75;;;26.01;41.95
41334;BME280;27078;46.428;6.256;2023-07-31T11:46:58;96412.38;;;26.23;42.41
41334;BME280;27078;46.428;6.256;2023-07-31T11:50:10;96416.69;;;26.47;42.55
41334;BME280;27078;46.428;6.256;2023-07-31T11:53:25;96402.31;;;26.35;42.00
41334;BME280;27078;46.428;6.256;2023-07-31T11:56:30;96400.56;;;26.29;42.36
41334;BME280;27078;46.428;6.256;2023-07-31T11:59:13;96394.22;;;26.35;42.15
41334;BME280;27078;46.428;6.256;2023-07-31T12:01:43;96392.22;;;26.42;41.08
41334;BME280;27078;46.428;6.256;2023-07-31T12:04:34;96385.50;;;26.33;39.79
41334;BME280;27078;46.428;6.256;2023-07-31T12:08:01;96384.09;;;26.42;40.59
41334;BME280;27078;46.428;6.256;2023-07-31T12:11:18;96375.38;;;26.40;40.76
41334;BME280;27078;46.428;6.256;2023-07-31T12:14:38;96367.28;;;26.28;41.78
41334;BME280;27078;46.428;6.256;2023-07-31T12:18:05;96369.25;;;26.33;41.93
41334;BME280;27078;46.428;6.256;2023-07-31T12:21:15;96363.13;;;26.49;42.67
41334;BME280;27078;46.428;6.256;2023-07-31T12:24:22;96361.13;;;26.45;42.13
41334;BME280;27078;46.428;6.256;2023-07-31T12:27:33;96368.44;;;26.44;42.15
41334;BME280;27078;46.428;6.256;2023-07-31T12:30:47;96358.19;;;26.46;41.42
41334;BME280;27078;46.428;6.256;2023-07-31T12:33:55;96353.47;;;26.53;42.10
41334;BME280;27078;46.428;6.256;2023-07-31T12:37:01;96353.84;;;26.57;41.57
41334;BME280;27078;46.428;6.256;2023-07-31T12:40:12;96336.78;;;26.56;41.69
41334;BME280;27078;46.428;6.256;2023-07-31T12:43:19;96339.84;;;26.48;41.46
41334;BME280;27078;46.428;6.256;2023-07-31T12:46:25;96333.81;;;26.58;40.02
41334;BME280;27078;46.428;6.256;2023-07-31T12:49:33;96322.38;;;26.68;40.96
41334;BME280;27078;46.428;6.256;2023-07-31T12:52:40;96318.97;;;26.89;38.98
41334;BME280;27078;46.428;6.256;2023-07-31T12:55:52;96315.38;;;27.00;39.21
41334;BME280;27078;46.428;6.256;2023-07-31T12:58:58;96309.25;;;27.05;39.31
41334;BME280;27078;46.428;6.256;2023-07-31T13:02:11;96306.00;;;26.91;39.79
41334;BME280;27078;46.428;6.256;2023-07-31T13:05:23;96288.19;;;27.24;40.25
41334;BME280;27078;46.428;6.256;2023-07-31T13:08:38;96291.81;;;27.30;38.25
41334;BME280;27078;46.428;6.256;2023-07-31T13:11:29;96292.94;;;27.34;39.28
41334;BME280;27078;46.428;6.256;2023-07-31T13:14:43;96289.03;;;27.41;38.94
41334;BME280;27078;46.428;6.256;2023-07-31T13:17:51;96279.31;;;27.63;38.23
41334;BME280;27078;46.428;6.256;2023-07-31T13:21:05;96290.41;;;27.61;38.89
41334;BME280;27078;46.428;6.256;2023-07-31T13:24:11;96281.75;;;27.64;38.75
41334;BME280;27078;46.428;6.256;2023-07-31T13:27:24;96273.84;;;27.79;38.71
41334;BME280;27078;46.428;6.256;2023-07-31T13:30:34;96263.25;;;27.95;37.20
41334;BME280;27078;46.428;6.256;2023-07-31T13:33:47;96259.00;;;28.04;35.21
41334;BME280;27078;46.428;6.256;2023-07-31T13:36:53;96258.56;;;28.12;35.51
41334;BME280;27078;46.428;6.256;2023-07-31T13:40:01;96247.09;;;28.05;36.10
41334;BME280;27078;46.428;6.256;2023-07-31T13:43:08;96250.38;;;28.07;34.72